sensor_id;sensor_type;location;lat;lon;timestamp;P1;durP1;ratioP1;P2;durP2;ratioP2
6483;SDS011;3275;52.376;9.694;2024-02-16T07:50:19;3.60;;;1.80;;
6483;SDS011;3275;52.376;9.694;2024-02-16T07:52:46;2.20;;;1.60;;
6483;SDS011;3275;52.376;9.694;2024-02-16T07:55:14;2.90;;;1.87;;
6483;SDS011;3275;52.376;9.694;2024-02-16T07:57:43;2.67;;;1.73;;
6483;SDS011;3275;52.376;9.694;2024-02-16T08:00:10;2.23;;;1.73;;
6483;SDS011;3275;52.376;9.694;2024-02-16T08:02:37;2.57;;;1.57;;
6483;SDS011;3275;52.376;9.694;2024-02-16T08:05:05;4.53;;;1.67;;
6483;SDS011;3275;52.376;9.694;2024-02-16T08:07:34;3.80;;;2.00;;
6483;SDS011;3275;52.376;9.694;2024-02-16T08:10:00;2.50;;;1.90;;
6483;SDS011;3275;52.376;9.694;2024-02-16T08:12:27;4.60;;;1.40;;
6483;SDS011;3275;52.376;9.694;2024-02-16T08:14:56;5.37;;;2.10;;
6483;SDS011;3275;52.376;9.694;2024-02-16T08:17:23;3.10;;;2.00;;
6483;SDS011;3275;52.376;9.694;2024-02-16T08:19:51;6.10;;;2.03;;
6483;SDS011;3275;52.376;9.694;2024-02-16T08:22:19;3.40;;;2.73;;
6483;SDS011;3275;52.376;9.694;2024-02-16T08:24:49;3.53;;;2.07;;
6483;SDS011;3275;52.376;9.694;2024-02-16T08:27:17;3.60;;;1.60;;
6483;SDS011;3275;52.376;9.694;2024-02-16T08:29:44;3.27;;;1.57;;
6483;SDS011;3275;52.376;9.694;2024-02-16T08:32:10;5.20;;;1.90;;
6483;SDS011;3275;52.376;9.694;2024-02-16T08:34:37;2.93;;;1.87;;
6483;SDS011;3275;52.376;9.694;2024-02-16T08:37:04;4.40;;;1.60;;
6483;SDS011;3275;52.376;9.694;2024-02-16T08:39:32;2.87;;;1.90;;
6483;SDS011;3275;52.376;9.694;2024-02-16T08:42:01;5.33;;;1.90;;
6483;SDS011;3275;52.376;9.694;2024-02-16T08:44:28;2.87;;;2.07;;
6483;SDS011;3275;52.376;9.694;2024-02-16T08:46:54;2.50;;;1.73;;
6483;SDS011;3275;52.376;9.694;2024-02-16T08:49:21;8.20;;;2.10;;
6483;SDS011;3275;52.376;9.694;2024-02-16T08:51:48;2.70;;;1.93;;
6483;SDS011;3275;52.376;9.694;2024-02-16T08:54:15;3.27;;;1.57;;
6483;SDS011;3275;52.376;9.694;2024-02-16T08:56:43;4.87;;;1.87;;
6483;SDS011;3275;52.376;9.694;2024-02-16T08:59:12;3.00;;;1.83;;
6483;SDS011;3275;52.376;9.694;2024-02-16T09:01:38;4.90;;;2.43;;
6483;SDS011;3275;52.376;9.694;2024-02-16T09:04:05;7.30;;;1.73;;
6483;SDS011;3275;52.376;9.694;2024-02-16T09:06:32;1.90;;;1.27;;
6483;SDS011;3275;52.376;9.694;2024-02-16T09:08:59;2.03;;;1.63;;
6483;SDS011;3275;52.376;9.694;2024-02-16T09:11:26;3.93;;;1.50;;
6483;SDS011;3275;52.376;9.694;2024-02-16T09:13:53;3.13;;;1.33;;
6483;SDS011;3275;52.376;9.694;2024-02-16T09:16:21;4.57;;;1.90;;
6483;SDS011;3275;52.376;9.694;2024-02-16T09:18:47;3.00;;;1.63;;
6483;SDS011;3275;52.376;9.694;2024-02-16T09:21:14;2.10;;;1.53;;
6483;SDS011;3275;52.376;9.694;2024-02-16T09:23:40;4.80;;;1.87;;
6483;SDS011;3275;52.376;9.694;2024-02-16T09:26:07;3.70;;;1.90;;
6483;SDS011;3275;52.376;9.694;2024-02-16T09:28:38;3.40;;;1.40;;
6483;SDS011;3275;52.376;9.694;2024-02-16T09:31:05;2.40;;;1.60;;
6483;SDS011;3275;52.376;9.694;2024-02-16T09:33:34;2.53;;;1.50;;
6483;SDS011;3275;52.376;9.694;2024-02-16T09:36:01;3.40;;;1.40;;
6483;SDS011;3275;52.376;9.694;2024-02-16T09:38:29;1.50;;;1.40;;
6483;SDS011;3275;52.376;9.694;2024-02-16T09:40:56;1.70;;;1.47;;
6483;SDS011;3275;52.376;9.694;2024-02-16T09:43:26;3.50;;;1.70;;
6483;SDS011;3275;52.376;9.694;2024-02-16T09:45:54;2.77;;;1.77;;
6483;SDS011;3275;52.376;9.694;2024-02-16T09:48:21;6.63;;;1.67;;
6483;SDS011;3275;52.376;9.694;2024-02-16T09:50:49;4.73;;;1.70;;
6483;SDS011;3275;52.376;9.694;2024-02-16T09:53:17;1.30;;;1.20;;
6483;SDS011;3275;52.376;9.694;2024-02-16T09:55:47;2.20;;;1.30;;
6483;SDS011;3275;52.376;9.694;2024-02-16T09:58:16;8.20;;;1.67;;
6483;SDS011;3275;52.376;9.694;2024-02-16T10:00:47;4.00;;;1.87;;
6483;SDS011;3275;52.376;9.694;2024-02-16T10:03:21;4.30;;;1.43;;
6483;SDS011;3275;52.376;9.694;2024-02-16T10:05:49;4.57;;;2.17;;
6483;SDS011;3275;52.376;9.694;2024-02-16T10:08:17;5.13;;;2.67;;
6483;SDS011;3275;52.376;9.694;2024-02-16T10:10:43;4.60;;;2.90;;
6483;SDS011;3275;52.376;9.694;2024-02-16T10:13:10;2.93;;;1.90;;
6483;SDS011;3275;52.376;9.694;2024-02-16T10:15:37;5.37;;;2.77;;
6483;SDS011;3275;52.376;9.694;2024-02-16T10:18:04;6.93;;;2.10;;
6483;SDS011;3275;52.376;9.694;2024-02-16T10:20:32;2.90;;;1.93;;
6483;SDS011;3275;52.376;9.694;2024-02-16T10:23:04;3.23;;;1.60;;
6483;SDS011;3275;52.376;9.694;2024-02-16T10:25:31;2.77;;;1.70;;
6483;SDS011;3275;52.376;9.694;2024-02-16T10:27:58;5.27;;;2.07;;
6483;SDS011;3275;52.376;9.694;2024-02-16T10:30:27;3.63;;;1.67;;
6483;SDS011;3275;52.376;9.694;2024-02-16T10:32:56;2.37;;;1.50;;
6483;SDS011;3275;52.376;9.694;2024-02-16T10:35:24;2.13;;;1.37;;
6483;SDS011;3275;52.376;9.694;2024-02-16T10:37:51;3.93;;;1.70;;
6483;SDS011;3275;52.376;9.694;2024-02-16T10:40:22;3.30;;;1.83;;
6483;SDS011;3275;52.376;9.694;2024-02-16T10:42:49;3.93;;;1.60;;
6483;SDS011;3275;52.376;9.694;2024-02-16T10:45:16;4.17;;;1.80;;
6483;SDS011;3275;52.376;9.694;2024-02-16T10:47:43;3.80;;;1.93;;
6483;SDS011;3275;52.376;9.694;2024-02-16T10:50:10;2.83;;;1.63;;
6483;SDS011;3275;52.376;9.694;2024-02-16T10:52:37;2.30;;;1.80;;
6483;SDS011;3275;52.376;9.694;2024-02-16T10:55:06;3.73;;;1.63;;
6483;SDS011;3275;52.376;9.694;2024-02-16T10:57:36;7.33;;;1.60;;
6483;SDS011;3275;52.376;9.694;2024-02-16T11:00:07;2.90;;;1.63;;
6483;SDS011;3275;52.376;9.694;2024-02-16T11:02:50;2.17;;;1.73;;
6483;SDS011;3275;52.376;9.694;2024-02-16T11:05:18;7.03;;;1.70;;
6483;SDS011;3275;52.376;9.694;2024-02-16T11:07:45;2.53;;;1.57;;
6483;SDS011;3275;52.376;9.694;2024-02-16T11:10:12;2.80;;;1.60;;
6483;SDS011;3275;52.376;9.694;2024-02-16T11:12:40;2.20;;;1.53;;
6483;SDS011;3275;52.376;9.694;2024-02-16T11:15:11;2.83;;;1.93;;
6483;SDS011;3275;52.376;9.694;2024-02-16T11:17:39;3.43;;;1.60;;
6483;SDS011;3275;52.376;9.694;2024-02-16T11:20:06;2.57;;;1.67;;
6483;SDS011;3275;52.376;9.694;2024-02-16T11:22:33;7.10;;;1.50;;
6483;SDS011;3275;52.376;9.694;2024-02-16T11:25:04;2.23;;;1.60;;
6483;SDS011;3275;52.376;9.694;2024-02-16T11:27:32;1.87;;;1.57;;
6483;SDS011;3275;52.376;9.694;2024-02-16T11:30:00;1.80;;;1.50;;
6483;SDS011;3275;52.376;9.694;2024-02-16T11:32:31;3.97;;;1.80;;
6483;SDS011;3275;52.376;9.694;2024-02-16T11:35:04;3.60;;;1.60;;
6483;SDS011;3275;52.376;9.694;2024-02-16T11:37:32;9.03;;;4.10;;
6483;SDS011;3275;52.376;9.694;2024-02-16T11:39:58;3.83;;;2.33;;
6483;SDS011;3275;52.376;9.694;2024-02-16T11:42:25;11.27;;;5.70;;
6483;SDS011;3275;52.376;9.694;2024-02-16T11:44:52;4.80;;;2.00;;
6483;SDS011;3275;52.376;9.694;2024-02-16T11:47:21;4.30;;;2.70;;
6483;SDS011;3275;52.376;9.694;2024-02-16T11:49:59;5.33;;;3.17;;
6483;SDS011;3275;52.376;9.694;2024-02-16T11:52:26;4.10;;;1.90;;
6483;SDS011;3275;52.376;9.694;2024-02-16T11:54:53;11.00;;;5.87;;
6483;SDS011;3275;52.376;9.694;2024-02-16T11:57:22;8.30;;;3.83;;
6483;SDS011;3275;52.376;9.694;2024-02-16T11:59:49;3.57;;;1.77;;
6483;SDS011;3275;52.376;9.694;2024-02-16T12:02:17;6.03;;;2.33;;
6483;SDS011;3275;52.376;9.694;2024-02-16T12:04:47;4.47;;;1.80;;
6483;SDS011;3275;52.376;9.694;2024-02-16T12:07:15;2.20;;;1.70;;
6483;SDS011;3275;52.376;9.694;2024-02-16T12:09:42;2.77;;;1.77;;
6483;SDS011;3275;52.376;9.694;2024-02-16T12:12:08;5.53;;;1.93;;
6483;SDS011;3275;52.376;9.694;2024-02-16T12:14:35;2.60;;;1.90;;
6483;SDS011;3275;52.376;9.694;2024-02-16T12:17:03;8.57;;;2.10;;
6483;SDS011;3275;52.376;9.694;2024-02-16T12:19:29;2.67;;;1.80;;
6483;SDS011;3275;52.376;9.694;2024-02-16T12:21:57;3.20;;;1.60;;
6483;SDS011;3275;52.376;9.694;2024-02-16T12:24:24;5.70;;;2.03;;
6483;SDS011;3275;52.376;9.694;2024-02-16T12:26:51;3.90;;;1.90;;
6483;SDS011;3275;52.376;9.694;2024-02-16T12:29:17;2.60;;;1.77;;
6483;SDS011;3275;52.376;9.694;2024-02-16T12:31:44;3.10;;;1.80;;
6483;SDS011;3275;52.376;9.694;2024-02-16T12:34:13;5.07;;;1.70;;
6483;SDS011;3275;52.376;9.694;2024-02-16T12:36:39;5.00;;;1.90;;
6483;SDS011;3275;52.376;9.694;2024-02-16T12:39:08;3.70;;;1.60;;
6483;SDS011;3275;52.376;9.694;2024-02-16T12:41:37;5.30;;;2.37;;
6483;SDS011;3275;52.376;9.694;2024-02-16T12:44:04;5.60;;;1.77;;
6483;SDS011;3275;52.376;9.694;2024-02-16T12:46:31;4.33;;;2.20;;
6483;SDS011;3275;52.376;9.694;2024-02-16T12:48:58;3.77;;;2.07;;
6483;SDS011;3275;52.376;9.694;2024-02-16T12:51:24;5.53;;;2.13;;
6483;SDS011;3275;52.376;9.694;2024-02-16T12:53:51;3.30;;;1.50;;
6483;SDS011;3275;52.376;9.694;2024-02-16T12:56:19;4.77;;;2.07;;
6483;SDS011;3275;52.376;9.694;2024-02-16T12:58:47;4.67;;;2.10;;
6483;SDS011;3275;52.376;9.694;2024-02-16T13:01:14;3.77;;;1.77;;
6483;SDS011;3275;52.376;9.694;2024-02-16T13:03:43;3.63;;;2.30;;
6483;SDS011;3275;52.376;9.694;2024-02-16T13:06:11;5.80;;;2.60;;
6483;SDS011;3275;52.376;9.694;2024-02-16T13:08:38;6.63;;;2.23;;
6483;SDS011;3275;52.376;9.694;2024-02-16T13:11:05;4.40;;;2.23;;
6483;SDS011;3275;52.376;9.694;2024-02-16T13:13:33;2.63;;;2.00;;
6483;SDS011;3275;52.376;9.694;2024-02-16T13:15:59;4.40;;;2.57;;
6483;SDS011;3275;52.376;9.694;2024-02-16T13:18:26;9.50;;;2.17;;
6483;SDS011;3275;52.376;9.694;2024-02-16T13:20:52;5.80;;;2.13;;
6483;SDS011;3275;52.376;9.694;2024-02-16T13:23:19;3.57;;;1.97;;
6483;SDS011;3275;52.376;9.694;2024-02-16T13:25:46;3.77;;;2.20;;
6483;SDS011;3275;52.376;9.694;2024-02-16T13:28:13;3.33;;;1.90;;
6483;SDS011;3275;52.376;9.694;2024-02-16T13:30:42;3.90;;;2.20;;
6483;SDS011;3275;52.376;9.694;2024-02-16T13:33:09;5.53;;;1.77;;
6483;SDS011;3275;52.376;9.694;2024-02-16T13:35:35;4.90;;;2.13;;
6483;SDS011;3275;52.376;9.694;2024-02-16T13:38:03;6.97;;;2.07;;
6483;SDS011;3275;52.376;9.694;2024-02-16T13:40:30;8.17;;;2.60;;
6483;SDS011;3275;52.376;9.694;2024-02-16T13:42:58;5.70;;;2.07;;
6483;SDS011;3275;52.376;9.694;2024-02-16T13:45:27;4.17;;;1.97;;
6483;SDS011;3275;52.376;9.694;2024-02-16T13:47:55;9.60;;;2.60;;
6483;SDS011;3275;52.376;9.694;2024-02-16T13:50:22;3.47;;;2.13;;
6483;SDS011;3275;52.376;9.694;2024-02-16T13:52:49;4.37;;;2.83;;
6483;SDS011;3275;52.376;9.694;2024-02-16T13:55:16;4.27;;;2.30;;
6483;SDS011;3275;52.376;9.694;2024-02-16T13:57:43;5.90;;;2.60;;
6483;SDS011;3275;52.376;9.694;2024-02-16T14:00:09;4.30;;;2.37;;
6483;SDS011;3275;52.376;9.694;2024-02-16T14:02:36;5.87;;;2.23;;
6483;SDS011;3275;52.376;9.694;2024-02-16T14:05:05;5.30;;;2.80;;
6483;SDS011;3275;52.376;9.694;2024-02-16T14:07:32;5.60;;;2.77;;
6483;SDS011;3275;52.376;9.694;2024-02-16T14:09:59;4.23;;;2.83;;
6483;SDS011;3275;52.376;9.694;2024-02-16T14:12:25;6.30;;;2.67;;
6483;SDS011;3275;52.376;9.694;2024-02-16T14:14:52;2.73;;;2.03;;
6483;SDS011;3275;52.376;9.694;2024-02-16T14:17:19;6.77;;;2.43;;
6483;SDS011;3275;52.376;9.694;2024-02-16T14:19:46;12.27;;;2.93;;
6483;SDS011;3275;52.376;9.694;2024-02-16T14:22:14;5.80;;;2.40;;
6483;SDS011;3275;52.376;9.694;2024-02-16T14:24:40;5.37;;;2.60;;
6483;SDS011;3275;52.376;9.694;2024-02-16T14:27:07;6.30;;;3.20;;
6483;SDS011;3275;52.376;9.694;2024-02-16T14:29:34;4.73;;;2.90;;
6483;SDS011;3275;52.376;9.694;2024-02-16T14:32:00;6.50;;;2.97;;
6483;SDS011;3275;52.376;9.694;2024-02-16T14:34:28;8.10;;;3.43;;
6483;SDS011;3275;52.376;9.694;2024-02-16T14:36:56;8.90;;;2.90;;
6483;SDS011;3275;52.376;9.694;2024-02-16T14:39:23;8.10;;;3.03;;
6483;SDS011;3275;52.376;9.694;2024-02-16T14:41:50;4.90;;;3.00;;
6483;SDS011;3275;52.376;9.694;2024-02-16T14:44:17;6.23;;;3.80;;
6483;SDS011;3275;52.376;9.694;2024-02-16T14:46:43;3.63;;;2.90;;
6483;SDS011;3275;52.376;9.694;2024-02-16T14:49:10;9.30;;;2.80;;
6483;SDS011;3275;52.376;9.694;2024-02-16T14:51:44;11.43;;;3.60;;
6483;SDS011;3275;52.376;9.694;2024-02-16T14:54:11;10.27;;;3.70;;
6483;SDS011;3275;52.376;9.694;2024-02-16T14:56:39;12.07;;;3.70;;
6483;SDS011;3275;52.376;9.694;2024-02-16T14:59:05;8.07;;;3.53;;
6483;SDS011;3275;52.376;9.694;2024-02-16T15:01:32;11.13;;;4.23;;
6483;SDS011;3275;52.376;9.694;2024-02-16T15:03:58;5.27;;;3.50;;
6483;SDS011;3275;52.376;9.694;2024-02-16T15:06:25;5.47;;;3.40;;
6483;SDS011;3275;52.376;9.694;2024-02-16T15:08:52;7.23;;;3.30;;
6483;SDS011;3275;52.376;9.694;2024-02-16T15:11:18;7.77;;;4.10;;
6483;SDS011;3275;52.376;9.694;2024-02-16T15:13:46;5.17;;;3.83;;
6483;SDS011;3275;52.376;9.694;2024-02-16T15:16:14;6.97;;;4.77;;
6483;SDS011;3275;52.376;9.694;2024-02-16T15:18:41;7.30;;;4.40;;
6483;SDS011;3275;52.376;9.694;2024-02-16T15:21:08;10.63;;;4.63;;
6483;SDS011;3275;52.376;9.694;2024-02-16T15:23:34;7.07;;;5.10;;
6483;SDS011;3275;52.376;9.694;2024-02-16T15:26:01;11.80;;;5.70;;
6483;SDS011;3275;52.376;9.694;2024-02-16T15:28:28;11.83;;;5.50;;
6483;SDS011;3275;52.376;9.694;2024-02-16T15:30:56;6.87;;;4.77;;
6483;SDS011;3275;52.376;9.694;2024-02-16T15:33:23;9.87;;;4.87;;
6483;SDS011;3275;52.376;9.694;2024-02-16T15:35:49;20.13;;;6.03;;
6483;SDS011;3275;52.376;9.694;2024-02-16T15:38:16;9.07;;;5.47;;
6483;SDS011;3275;52.376;9.694;2024-02-16T15:40:43;8.53;;;5.13;;
6483;SDS011;3275;52.376;9.694;2024-02-16T15:43:10;10.07;;;6.80;;
6483;SDS011;3275;52.376;9.694;2024-02-16T15:45:37;11.43;;;7.47;;
6483;SDS011;3275;52.376;9.694;2024-02-16T15:48:07;12.70;;;7.27;;
6483;SDS011;3275;52.376;9.694;2024-02-16T15:50:34;18.43;;;7.70;;
6483;SDS011;3275;52.376;9.694;2024-02-16T15:53:02;17.50;;;8.93;;
6483;SDS011;3275;52.376;9.694;2024-02-16T15:55:28;15.20;;;8.40;;
6483;SDS011;3275;52.376;9.694;2024-02-16T15:57:55;13.57;;;9.27;;
6483;SDS011;3275;52.376;9.694;2024-02-16T16:00:22;15.10;;;10.07;;
6483;SDS011;3275;52.376;9.694;2024-02-16T16:02:49;11.40;;;8.50;;
6483;SDS011;3275;52.376;9.694;2024-02-16T16:05:17;18.60;;;9.27;;
6483;SDS011;3275;52.376;9.694;2024-02-16T16:07:44;15.57;;;9.87;;
6483;SDS011;3275;52.376;9.694;2024-02-16T16:10:10;15.90;;;10.17;;
6483;SDS011;3275;52.376;9.694;2024-02-16T16:12:38;13.37;;;8.07;;
6483;SDS011;3275;52.376;9.694;2024-02-16T16:15:05;16.93;;;9.27;;
6483;SDS011;3275;52.376;9.694;2024-02-16T16:17:32;13.20;;;8.47;;
6483;SDS011;3275;52.376;9.694;2024-02-16T16:19:59;13.53;;;9.57;;
6483;SDS011;3275;52.376;9.694;2024-02-16T16:22:27;14.60;;;8.83;;
6483;SDS011;3275;52.376;9.694;2024-02-16T21:38:32;6.03;;;4.63;;
6483;SDS011;3275;52.376;9.694;2024-02-16T21:40:59;7.87;;;4.70;;
6483;SDS011;3275;52.376;9.694;2024-02-16T21:43:28;6.27;;;4.60;;
6483;SDS011;3275;52.376;9.694;2024-02-16T21:45:55;5.87;;;4.40;;
6483;SDS011;3275;52.376;9.694;2024-02-16T21:48:21;6.70;;;4.93;;
6483;SDS011;3275;52.376;9.694;2024-02-16T21:50:48;6.40;;;4.53;;
6483;SDS011;3275;52.376;9.694;2024-02-16T21:53:15;6.87;;;4.63;;
6483;SDS011;3275;52.376;9.694;2024-02-16T21:55:42;9.03;;;5.50;;
6483;SDS011;3275;52.376;9.694;2024-02-16T21:58:09;10.17;;;6.63;;
6483;SDS011;3275;52.376;9.694;2024-02-16T22:00:36;7.40;;;5.33;;
6483;SDS011;3275;52.376;9.694;2024-02-16T22:03:02;8.50;;;5.17;;
6483;SDS011;3275;52.376;9.694;2024-02-16T22:05:30;9.40;;;6.13;;
6483;SDS011;3275;52.376;9.694;2024-02-16T22:07:57;7.97;;;5.70;;
6483;SDS011;3275;52.376;9.694;2024-02-16T22:10:23;10.43;;;6.10;;
6483;SDS011;3275;52.376;9.694;2024-02-16T22:12:51;7.10;;;5.20;;
6483;SDS011;3275;52.376;9.694;2024-02-16T22:15:18;10.70;;;5.80;;
6483;SDS011;3275;52.376;9.694;2024-02-16T22:17:44;10.97;;;5.57;;
6483;SDS011;3275;52.376;9.694;2024-02-16T22:20:11;9.13;;;5.33;;
6483;SDS011;3275;52.376;9.694;2024-02-16T22:22:38;11.37;;;5.50;;
6483;SDS011;3275;52.376;9.694;2024-02-16T22:25:05;9.37;;;5.60;;
6483;SDS011;3275;52.376;9.694;2024-02-16T22:27:31;9.67;;;5.80;;
6483;SDS011;3275;52.376;9.694;2024-02-16T22:29:59;11.37;;;5.60;;
6483;SDS011;3275;52.376;9.694;2024-02-16T22:32:26;8.03;;;4.43;;
6483;SDS011;3275;52.376;9.694;2024-02-16T22:34:52;8.30;;;4.90;;
6483;SDS011;3275;52.376;9.694;2024-02-16T22:37:19;6.60;;;4.80;;
6483;SDS011;3275;52.376;9.694;2024-02-16T22:39:46;7.50;;;5.10;;
6483;SDS011;3275;52.376;9.694;2024-02-16T22:42:12;8.10;;;5.70;;
6483;SDS011;3275;52.376;9.694;2024-02-16T22:44:39;12.80;;;5.53;;
6483;SDS011;3275;52.376;9.694;2024-02-16T22:47:07;8.60;;;5.97;;
6483;SDS011;3275;52.376;9.694;2024-02-16T22:49:34;8.57;;;5.40;;
6483;SDS011;3275;52.376;9.694;2024-02-16T22:52:01;12.57;;;5.87;;
6483;SDS011;3275;52.376;9.694;2024-02-16T22:54:28;11.50;;;6.00;;
6483;SDS011;3275;52.376;9.694;2024-02-16T22:56:54;9.33;;;6.20;;
6483;SDS011;3275;52.376;9.694;2024-02-16T22:59:21;9.87;;;6.07;;
6483;SDS011;3275;52.376;9.694;2024-02-16T23:01:47;11.10;;;6.57;;
6483;SDS011;3275;52.376;9.694;2024-02-16T23:04:15;10.50;;;5.30;;
6483;SDS011;3275;52.376;9.694;2024-02-16T23:06:42;11.73;;;5.60;;
6483;SDS011;3275;52.376;9.694;2024-02-16T23:09:08;8.50;;;5.63;;
6483;SDS011;3275;52.376;9.694;2024-02-16T23:11:36;9.40;;;6.50;;
6483;SDS011;3275;52.376;9.694;2024-02-16T23:14:06;9.67;;;6.40;;
6483;SDS011;3275;52.376;9.694;2024-02-16T23:16:34;10.50;;;6.07;;
6483;SDS011;3275;52.376;9.694;2024-02-16T23:19:01;9.50;;;5.60;;
6483;SDS011;3275;52.376;9.694;2024-02-16T23:21:29;9.23;;;6.17;;
6483;SDS011;3275;52.376;9.694;2024-02-16T23:23:56;15.40;;;7.10;;
6483;SDS011;3275;52.376;9.694;2024-02-16T23:26:22;10.97;;;6.20;;
6483;SDS011;3275;52.376;9.694;2024-02-16T23:28:49;10.20;;;6.77;;
6483;SDS011;3275;52.376;9.694;2024-02-16T23:31:16;11.63;;;6.23;;
6483;SDS011;3275;52.376;9.694;2024-02-16T23:33:43;17.27;;;10.07;;
6483;SDS011;3275;52.376;9.694;2024-02-16T23:36:10;12.20;;;6.50;;
6483;SDS011;3275;52.376;9.694;2024-02-16T23:38:38;18.23;;;7.00;;
6483;SDS011;3275;52.376;9.694;2024-02-16T23:41:04;14.30;;;7.77;;
6483;SDS011;3275;52.376;9.694;2024-02-16T23:43:31;10.70;;;6.17;;
6483;SDS011;3275;52.376;9.694;2024-02-16T23:45:58;14.60;;;7.63;;
6483;SDS011;3275;52.376;9.694;2024-02-16T23:48:26;11.13;;;7.03;;
6483;SDS011;3275;52.376;9.694;2024-02-16T23:50:53;11.87;;;7.37;;
6483;SDS011;3275;52.376;9.694;2024-02-16T23:53:20;13.80;;;7.20;;
6483;SDS011;3275;52.376;9.694;2024-02-16T23:55:49;17.03;;;7.80;;
6483;SDS011;3275;52.376;9.694;2024-02-16T23:58:16;19.40;;;7.70;;
